sensor_id;sensor_type;location;lat;lon;timestamp;P1;durP1;ratioP1;P2;durP2;ratioP2
19223;SDS011;9746;47.180;9.776;2023-02-28T10:30:26;0.30;;;0.30;;
19223;SDS011;9746;47.180;9.776;2023-02-28T10:32:54;0.20;;;0.20;;
19223;SDS011;9746;47.180;9.776;2023-02-28T10:35:23;0.20;;;0.20;;
19223;SDS011;9746;47.180;9.776;2023-02-28T10:37:53;0.20;;;0.20;;
19223;SDS011;9746;47.180;9.776;2023-02-28T10:40:29;0.20;;;0.20;;
19223;SDS011;9746;47.180;9.776;2023-02-28T10:42:58;0.20;;;0.20;;
19223;SDS011;9746;47.180;9.776;2023-02-28T10:45:30;0.20;;;0.20;;
19223;SDS011;9746;47.180;9.776;2023-02-28T10:48:00;0.20;;;0.20;;
19223;SDS011;9746;47.180;9.776;2023-02-28T10:50:44;0.30;;;0.30;;
19223;SDS011;9746;47.180;9.776;2023-02-28T10:56:15;0.30;;;0.30;;
19223;SDS011;9746;47.180;9.776;2023-02-28T11:01:24;0.20;;;0.20;;
19223;SDS011;9746;47.180;9.776;2023-02-28T11:04:17;0.20;;;0.20;;
19223;SDS011;9746;47.180;9.776;2023-02-28T11:06:47;0.20;;;0.20;;
19223;SDS011;9746;47.180;9.776;2023-02-28T11:09:24;0.20;;;0.20;;
19223;SDS011;9746;47.180;9.776;2023-02-28T11:11:56;0.20;;;0.20;;
19223;SDS011;9746;47.180;9.776;2023-02-28T11:14:27;0.20;;;0.20;;
19223;SDS011;9746;47.180;9.776;2023-02-28T11:16:58;0.20;;;0.20;;
19223;SDS011;9746;47.180;9.776;2023-02-28T11:19:46;0.20;;;0.20;;
19223;SDS011;9746;47.180;9.776;2023-02-28T11:22:18;0.20;;;0.20;;
19223;SDS011;9746;47.180;9.776;2023-02-28T11:24:51;0.20;;;0.20;;
19223;SDS011;9746;47.180;9.776;2023-02-28T11:27:25;0.20;;;0.20;;
19223;SDS011;9746;47.180;9.776;2023-02-28T11:33:25;0.20;;;0.20;;
19223;SDS011;9746;47.180;9.776;2023-02-28T11:36:02;0.20;;;0.20;;
19223;SDS011;9746;47.180;9.776;2023-02-28T11:38:31;0.20;;;0.20;;
19223;SDS011;9746;47.180;9.776;2023-02-28T11:47:09;0.20;;;0.20;;
19223;SDS011;9746;47.180;9.776;2023-02-28T11:49:57;0.20;;;0.20;;
19223;SDS011;9746;47.180;9.776;2023-02-28T11:52:36;0.20;;;0.20;;
19223;SDS011;9746;47.180;9.776;2023-02-28T11:55:20;0.20;;;0.20;;
19223;SDS011;9746;47.180;9.776;2023-02-28T11:57:56;0.20;;;0.20;;
19223;SDS011;9746;47.180;9.776;2023-02-28T12:03:44;0.20;;;0.20;;
19223;SDS011;9746;47.180;9.776;2023-02-28T12:06:22;0.20;;;0.20;;
19223;SDS011;9746;47.180;9.776;2023-02-28T12:09:00;0.13;;;0.13;;
19223;SDS011;9746;47.180;9.776;2023-02-28T12:11:45;0.20;;;0.20;;
19223;SDS011;9746;47.180;9.776;2023-02-28T12:14:31;0.20;;;0.20;;
19223;SDS011;9746;47.180;9.776;2023-02-28T12:17:16;0.10;;;0.10;;
19223;SDS011;9746;47.180;9.776;2023-02-28T12:20:11;0.20;;;0.20;;
19223;SDS011;9746;47.180;9.776;2023-02-28T12:22:52;0.20;;;0.20;;
19223;SDS011;9746;47.180;9.776;2023-02-28T12:25:47;0.10;;;0.10;;
19223;SDS011;9746;47.180;9.776;2023-02-28T12:28:26;0.15;;;0.15;;
19223;SDS011;9746;47.180;9.776;2023-02-28T12:31:14;0.10;;;0.10;;
19223;SDS011;9746;47.180;9.776;2023-02-28T12:33:50;0.20;;;0.20;;
19223;SDS011;9746;47.180;9.776;2023-02-28T12:36:20;0.20;;;0.20;;
19223;SDS011;9746;47.180;9.776;2023-02-28T12:38:53;0.20;;;0.20;;
19223;SDS011;9746;47.180;9.776;2023-02-28T12:41:39;0.20;;;0.20;;
19223;SDS011;9746;47.180;9.776;2023-02-28T12:44:09;0.20;;;0.20;;
19223;SDS011;9746;47.180;9.776;2023-02-28T12:46:42;0.20;;;0.20;;
19223;SDS011;9746;47.180;9.776;2023-02-28T12:49:16;0.20;;;0.20;;
19223;SDS011;9746;47.180;9.776;2023-02-28T12:51:48;0.20;;;0.20;;
19223;SDS011;9746;47.180;9.776;2023-02-28T12:54:21;0.10;;;0.10;;
19223;SDS011;9746;47.180;9.776;2023-02-28T12:56:56;0.20;;;0.20;;
19223;SDS011;9746;47.180;9.776;2023-02-28T12:59:36;0.20;;;0.20;;
19223;SDS011;9746;47.180;9.776;2023-02-28T13:02:19;0.20;;;0.20;;
19223;SDS011;9746;47.180;9.776;2023-02-28T13:08:02;0.15;;;0.15;;
19223;SDS011;9746;47.180;9.776;2023-02-28T13:13:28;0.20;;;0.20;;
19223;SDS011;9746;47.180;9.776;2023-02-28T13:15:58;0.20;;;0.20;;
19223;SDS011;9746;47.180;9.776;2023-02-28T13:18:28;0.10;;;0.10;;
19223;SDS011;9746;47.180;9.776;2023-02-28T13:21:00;0.13;;;0.13;;
19223;SDS011;9746;47.180;9.776;2023-02-28T13:23:38;0.20;;;0.20;;
19223;SDS011;9746;47.180;9.776;2023-02-28T13:29:46;0.10;;;0.10;;
19223;SDS011;9746;47.180;9.776;2023-02-28T13:32:28;0.20;;;0.20;;
19223;SDS011;9746;47.180;9.776;2023-02-28T13:38:33;0.10;;;0.10;;
19223;SDS011;9746;47.180;9.776;2023-02-28T13:44:11;0.10;;;0.10;;
19223;SDS011;9746;47.180;9.776;2023-02-28T13:56:23;0.10;;;0.10;;
19223;SDS011;9746;47.180;9.776;2023-02-28T13:59:02;0.10;;;0.10;;
19223;SDS011;9746;47.180;9.776;2023-02-28T14:01:43;0.10;;;0.10;;
19223;SDS011;9746;47.180;9.776;2023-02-28T14:04:37;0.13;;;0.13;;
19223;SDS011;9746;47.180;9.776;2023-02-28T14:07:29;0.10;;;0.10;;
19223;SDS011;9746;47.180;9.776;2023-02-28T14:12:58;0.10;;;0.10;;
19223;SDS011;9746;47.180;9.776;2023-02-28T14:15:39;0.10;;;0.10;;
19223;SDS011;9746;47.180;9.776;2023-02-28T14:18:22;0.10;;;0.10;;
19223;SDS011;9746;47.180;9.776;2023-02-28T14:27:21;0.10;;;0.10;;
19223;SDS011;9746;47.180;9.776;2023-02-28T14:33:26;0.20;;;0.20;;
19223;SDS011;9746;47.180;9.776;2023-02-28T14:36:20;0.20;;;0.20;;
19223;SDS011;9746;47.180;9.776;2023-02-28T14:38:52;0.20;;;0.20;;
19223;SDS011;9746;47.180;9.776;2023-02-28T14:44:01;0.20;;;0.20;;
19223;SDS011;9746;47.180;9.776;2023-02-28T14:49:20;0.20;;;0.20;;
19223;SDS011;9746;47.180;9.776;2023-02-28T14:52:09;0.30;;;0.30;;
19223;SDS011;9746;47.180;9.776;2023-02-28T14:54:44;0.27;;;0.27;;
19223;SDS011;9746;47.180;9.776;2023-02-28T15:00:03;0.30;;;0.30;;
19223;SDS011;9746;47.180;9.776;2023-02-28T15:02:37;0.30;;;0.30;;
19223;SDS011;9746;47.180;9.776;2023-02-28T15:08:02;0.30;;;0.30;;
19223;SDS011;9746;47.180;9.776;2023-02-28T15:13:21;0.20;;;0.20;;
19223;SDS011;9746;47.180;9.776;2023-02-28T15:18:31;0.40;;;0.40;;
19223;SDS011;9746;47.180;9.776;2023-02-28T15:21:19;0.30;;;0.30;;
19223;SDS011;9746;47.180;9.776;2023-02-28T15:23:50;0.30;;;0.30;;
19223;SDS011;9746;47.180;9.776;2023-02-28T15:29:01;0.30;;;0.30;;
19223;SDS011;9746;47.180;9.776;2023-02-28T15:34:18;0.30;;;0.30;;
19223;SDS011;9746;47.180;9.776;2023-02-28T15:39:21;0.30;;;0.30;;
19223;SDS011;9746;47.180;9.776;2023-02-28T15:45:02;0.30;;;0.30;;
19223;SDS011;9746;47.180;9.776;2023-02-28T15:47:39;0.30;;;0.30;;
19223;SDS011;9746;47.180;9.776;2023-02-28T15:50:13;0.40;;;0.40;;
19223;SDS011;9746;47.180;9.776;2023-02-28T15:52:47;0.30;;;0.30;;
19223;SDS011;9746;47.180;9.776;2023-02-28T15:55:17;0.30;;;0.30;;
19223;SDS011;9746;47.180;9.776;2023-02-28T16:00:29;0.20;;;0.20;;
19223;SDS011;9746;47.180;9.776;2023-02-28T16:03:00;0.30;;;0.30;;
19223;SDS011;9746;47.180;9.776;2023-02-28T16:05:29;0.30;;;0.30;;
19223;SDS011;9746;47.180;9.776;2023-02-28T16:08:10;0.30;;;0.30;;
19223;SDS011;9746;47.180;9.776;2023-02-28T16:10:52;0.30;;;0.30;;
19223;SDS011;9746;47.180;9.776;2023-02-28T16:13:21;0.30;;;0.30;;
19223;SDS011;9746;47.180;9.776;2023-02-28T16:18:33;0.30;;;0.30;;
19223;SDS011;9746;47.180;9.776;2023-02-28T16:23:42;0.30;;;0.30;;
19223;SDS011;9746;47.180;9.776;2023-02-28T16:26:16;0.30;;;0.30;;
19223;SDS011;9746;47.180;9.776;2023-02-28T16:28:49;0.20;;;0.20;;
19223;SDS011;9746;47.180;9.776;2023-02-28T16:31:22;0.20;;;0.20;;
19223;SDS011;9746;47.180;9.776;2023-02-28T16:33:50;0.40;;;0.40;;
19223;SDS011;9746;47.180;9.776;2023-02-28T16:36:20;0.30;;;0.30;;
19223;SDS011;9746;47.180;9.776;2023-02-28T16:38:50;0.30;;;0.30;;
19223;SDS011;9746;47.180;9.776;2023-02-28T16:41:20;0.30;;;0.30;;
19223;SDS011;9746;47.180;9.776;2023-02-28T16:43:51;0.30;;;0.30;;
19223;SDS011;9746;47.180;9.776;2023-02-28T16:46:29;0.20;;;0.20;;
19223;SDS011;9746;47.180;9.776;2023-02-28T16:48:59;0.30;;;0.30;;
19223;SDS011;9746;47.180;9.776;2023-02-28T16:51:32;0.30;;;0.30;;
19223;SDS011;9746;47.180;9.776;2023-02-28T16:54:00;0.20;;;0.20;;
19223;SDS011;9746;47.180;9.776;2023-02-28T16:56:35;0.30;;;0.30;;
19223;SDS011;9746;47.180;9.776;2023-02-28T16:59:08;0.30;;;0.30;;
19223;SDS011;9746;47.180;9.776;2023-02-28T17:04:12;0.30;;;0.30;;
19223;SDS011;9746;47.180;9.776;2023-02-28T17:06:41;0.20;;;0.20;;
19223;SDS011;9746;47.180;9.776;2023-02-28T17:09:09;0.40;;;0.40;;
19223;SDS011;9746;47.180;9.776;2023-02-28T17:14:19;0.37;;;0.37;;
19223;SDS011;9746;47.180;9.776;2023-02-28T17:16:59;0.20;;;0.20;;
19223;SDS011;9746;47.180;9.776;2023-02-28T17:19:26;0.37;;;0.37;;
19223;SDS011;9746;47.180;9.776;2023-02-28T17:24:30;0.40;;;0.40;;
19223;SDS011;9746;47.180;9.776;2023-02-28T17:29:38;0.30;;;0.30;;
19223;SDS011;9746;47.180;9.776;2023-02-28T17:32:24;0.30;;;0.30;;
19223;SDS011;9746;47.180;9.776;2023-02-28T17:34:52;0.40;;;0.40;;
19223;SDS011;9746;47.180;9.776;2023-02-28T17:37:21;0.30;;;0.30;;
19223;SDS011;9746;47.180;9.776;2023-02-28T17:39:48;0.30;;;0.30;;
19223;SDS011;9746;47.180;9.776;2023-02-28T17:42:17;0.30;;;0.30;;
19223;SDS011;9746;47.180;9.776;2023-02-28T17:44:44;0.30;;;0.30;;
19223;SDS011;9746;47.180;9.776;2023-02-28T17:47:12;0.30;;;0.30;;
19223;SDS011;9746;47.180;9.776;2023-02-28T17:49:41;0.30;;;0.30;;
19223;SDS011;9746;47.180;9.776;2023-02-28T17:52:15;0.30;;;0.30;;
19223;SDS011;9746;47.180;9.776;2023-02-28T17:54:42;0.40;;;0.40;;
19223;SDS011;9746;47.180;9.776;2023-02-28T17:59:47;0.30;;;0.30;;
19223;SDS011;9746;47.180;9.776;2023-02-28T18:02:15;0.30;;;0.30;;
19223;SDS011;9746;47.180;9.776;2023-02-28T18:04:44;0.30;;;0.30;;
19223;SDS011;9746;47.180;9.776;2023-02-28T18:07:12;0.30;;;0.30;;
19223;SDS011;9746;47.180;9.776;2023-02-28T18:09:39;0.30;;;0.30;;
19223;SDS011;9746;47.180;9.776;2023-02-28T18:14:38;0.30;;;0.30;;
19223;SDS011;9746;47.180;9.776;2023-02-28T18:20:07;0.40;;;0.40;;
19223;SDS011;9746;47.180;9.776;2023-02-28T18:22:43;0.40;;;0.40;;
19223;SDS011;9746;47.180;9.776;2023-02-28T18:25:11;0.30;;;0.30;;
19223;SDS011;9746;47.180;9.776;2023-02-28T18:27:48;0.40;;;0.40;;
19223;SDS011;9746;47.180;9.776;2023-02-28T18:30:24;0.30;;;0.30;;
19223;SDS011;9746;47.180;9.776;2023-02-28T18:33:10;0.30;;;0.30;;
19223;SDS011;9746;47.180;9.776;2023-02-28T18:35:39;0.40;;;0.40;;
19223;SDS011;9746;47.180;9.776;2023-02-28T18:38:08;0.30;;;0.30;;
19223;SDS011;9746;47.180;9.776;2023-02-28T18:40:39;0.40;;;0.40;;
19223;SDS011;9746;47.180;9.776;2023-02-28T18:43:23;0.40;;;0.40;;
19223;SDS011;9746;47.180;9.776;2023-02-28T18:45:52;0.30;;;0.30;;
19223;SDS011;9746;47.180;9.776;2023-02-28T18:50:55;0.40;;;0.40;;
19223;SDS011;9746;47.180;9.776;2023-02-28T18:53:23;0.40;;;0.40;;
19223;SDS011;9746;47.180;9.776;2023-02-28T18:55:51;0.40;;;0.40;;
19223;SDS011;9746;47.180;9.776;2023-02-28T19:01:13;0.40;;;0.40;;
19223;SDS011;9746;47.180;9.776;2023-02-28T19:03:45;0.30;;;0.30;;
19223;SDS011;9746;47.180;9.776;2023-02-28T19:06:16;0.30;;;0.30;;
19223;SDS011;9746;47.180;9.776;2023-02-28T19:11:53;0.40;;;0.40;;
19223;SDS011;9746;47.180;9.776;2023-02-28T19:14:23;0.30;;;0.30;;
19223;SDS011;9746;47.180;9.776;2023-02-28T19:16:51;0.40;;;0.40;;
19223;SDS011;9746;47.180;9.776;2023-02-28T19:19:18;0.30;;;0.30;;
19223;SDS011;9746;47.180;9.776;2023-02-28T19:21:47;0.30;;;0.30;;
19223;SDS011;9746;47.180;9.776;2023-02-28T19:26:52;0.30;;;0.30;;
19223;SDS011;9746;47.180;9.776;2023-02-28T19:29:19;0.30;;;0.30;;
19223;SDS011;9746;47.180;9.776;2023-02-28T19:31:48;0.30;;;0.30;;
19223;SDS011;9746;47.180;9.776;2023-02-28T19:34:25;0.30;;;0.30;;
19223;SDS011;9746;47.180;9.776;2023-02-28T19:36:54;0.30;;;0.30;;
19223;SDS011;9746;47.180;9.776;2023-02-28T19:39:29;0.40;;;0.40;;
19223;SDS011;9746;47.180;9.776;2023-02-28T19:42:05;0.30;;;0.30;;
19223;SDS011;9746;47.180;9.776;2023-02-28T19:44:33;0.30;;;0.30;;
19223;SDS011;9746;47.180;9.776;2023-02-28T19:47:01;0.40;;;0.40;;
19223;SDS011;9746;47.180;9.776;2023-02-28T19:49:48;0.30;;;0.30;;
19223;SDS011;9746;47.180;9.776;2023-02-28T19:52:23;0.30;;;0.30;;
19223;SDS011;9746;47.180;9.776;2023-02-28T19:54:52;0.40;;;0.40;;
19223;SDS011;9746;47.180;9.776;2023-02-28T19:57:20;0.40;;;0.40;;
19223;SDS011;9746;47.180;9.776;2023-02-28T20:00:13;0.30;;;0.30;;
19223;SDS011;9746;47.180;9.776;2023-02-28T20:02:48;0.20;;;0.20;;
19223;SDS011;9746;47.180;9.776;2023-02-28T20:05:17;0.30;;;0.30;;
19223;SDS011;9746;47.180;9.776;2023-02-28T20:10:39;0.30;;;0.30;;
19223;SDS011;9746;47.180;9.776;2023-02-28T20:15:52;0.30;;;0.30;;
19223;SDS011;9746;47.180;9.776;2023-02-28T20:18:20;0.30;;;0.30;;
19223;SDS011;9746;47.180;9.776;2023-02-28T20:20:50;0.30;;;0.30;;
19223;SDS011;9746;47.180;9.776;2023-02-28T20:23:27;0.20;;;0.20;;
19223;SDS011;9746;47.180;9.776;2023-02-28T20:25:57;0.30;;;0.30;;
19223;SDS011;9746;47.180;9.776;2023-02-28T20:28:31;0.30;;;0.30;;
19223;SDS011;9746;47.180;9.776;2023-02-28T20:31:08;0.30;;;0.30;;
19223;SDS011;9746;47.180;9.776;2023-02-28T20:33:47;0.37;;;0.37;;
19223;SDS011;9746;47.180;9.776;2023-02-28T20:36:15;0.30;;;0.30;;
19223;SDS011;9746;47.180;9.776;2023-02-28T20:39:00;0.30;;;0.30;;
19223;SDS011;9746;47.180;9.776;2023-02-28T20:41:27;0.30;;;0.30;;
19223;SDS011;9746;47.180;9.776;2023-02-28T20:46:46;0.27;;;0.27;;
19223;SDS011;9746;47.180;9.776;2023-02-28T20:49:14;0.30;;;0.30;;
19223;SDS011;9746;47.180;9.776;2023-02-28T20:51:41;0.30;;;0.30;;
19223;SDS011;9746;47.180;9.776;2023-02-28T20:54:10;0.30;;;0.30;;
19223;SDS011;9746;47.180;9.776;2023-02-28T20:56:38;0.27;;;0.27;;
19223;SDS011;9746;47.180;9.776;2023-02-28T20:59:13;0.30;;;0.30;;
